createdAt,value
2023-05-19T03:14:32.672Z,100.00
2023-05-19T03:17:36.389Z,100.00
2023-05-19T03:20:41.503Z,100.00
2023-05-19T03:23:44.371Z,100.00
2023-05-19T03:26:46.526Z,100.00
2023-05-19T03:29:48.972Z,100.00
2023-05-19T03:32:52.082Z,100.00
2023-05-19T03:35:55.928Z,100.00
2023-05-19T03:38:59.169Z,100.00
2023-05-19T03:42:01.693Z,100.00
2023-05-19T03:45:04.324Z,100.00
2023-05-19T03:48:07.204Z,100.00
2023-05-19T03:51:10.003Z,100.00
2023-05-19T03:54:12.517Z,100.00
2023-05-19T03:57:15.723Z,100.00
2023-05-19T04:00:18.955Z,100.00
2023-05-19T04:03:21.702Z,100.00
2023-05-19T04:06:24.043Z,100.00
2023-05-19T04:09:26.591Z,100.00
2023-05-19T04:12:30.307Z,100.00
2023-05-19T04:15:32.901Z,100.00
2023-05-19T04:18:35.132Z,100.00
2023-05-19T04:21:37.627Z,100.00
2023-05-19T04:24:40.420Z,100.00
2023-05-19T04:27:43.176Z,100.00
2023-05-19T04:30:46.776Z,100.00
2023-05-19T04:33:49.750Z,100.00
2023-05-19T04:36:53.489Z,100.00
2023-05-19T04:39:56.316Z,100.00
2023-05-19T04:42:59.062Z,100.00
2023-05-19T04:46:02.116Z,100.00
2023-05-19T04:49:04.383Z,100.00
2023-05-19T04:52:11.156Z,100.00
2023-05-19T04:55:15.900Z,100.00
2023-05-19T04:58:19.643Z,100.00
2023-05-19T05:01:26.266Z,100.00
2023-05-19T05:04:29.199Z,100.00
2023-05-19T05:07:32.470Z,100.00
2023-05-19T05:10:36.083Z,100.00
2023-05-19T05:13:38.580Z,100.00
2023-05-19T05:16:41.775Z,100.00
2023-05-19T05:19:45.098Z,100.00
2023-05-19T05:22:47.944Z,100.00
2023-05-19T05:25:50.698Z,100.00
2023-05-19T05:28:54.105Z,100.00
2023-05-19T05:31:56.730Z,100.00
2023-05-19T05:34:59.870Z,100.00
2023-05-19T05:38:02.785Z,100.00
2023-05-19T05:41:05.506Z,100.00
2023-05-19T05:44:07.934Z,100.00
2023-05-19T05:47:11.982Z,100.00
2023-05-19T05:50:14.807Z,100.00
2023-05-19T05:53:19.672Z,100.00
2023-05-19T05:56:23.135Z,100.00
2023-05-19T05:59:26.576Z,100.00
2023-05-19T06:02:30.017Z,100.00
2023-05-19T06:05:33.277Z,100.00
2023-05-19T06:08:35.796Z,100.00
2023-05-19T06:11:41.611Z,100.00
2023-05-19T06:14:46.423Z,100.00
2023-05-19T06:17:49.504Z,100.00
2023-05-19T06:20:51.733Z,98.61
2023-05-19T06:23:54.699Z,100.00
2023-05-19T06:26:56.942Z,100.00
2023-05-19T06:29:59.730Z,100.00
2023-05-19T06:33:03.545Z,100.00
2023-05-19T06:36:06.407Z,100.00
2023-05-19T06:39:09.304Z,100.00
2023-05-19T06:42:12.196Z,100.00
2023-05-19T06:45:16.911Z,100.00
2023-05-19T06:48:19.851Z,98.07
2023-05-19T06:51:23.404Z,97.02
2023-05-19T06:54:26.756Z,97.96
2023-05-19T06:57:29.313Z,96.80
2023-05-19T07:00:32.429Z,98.32
2023-05-19T07:03:36.318Z,95.71
2023-05-19T07:06:39.113Z,91.25
2023-05-19T07:09:41.604Z,89.44
2023-05-19T07:12:44.193Z,85.45
2023-05-19T07:15:48.976Z,81.14
2023-05-19T07:18:52.049Z,84.52
2023-05-19T07:21:55.003Z,79.50
2023-05-19T07:24:57.551Z,76.67
2023-05-19T07:27:59.942Z,80.77
2023-05-19T07:31:02.536Z,74.25
2023-05-19T07:34:04.999Z,72.57
2023-05-19T07:37:07.670Z,72.87
2023-05-19T07:40:10.175Z,73.85
2023-05-19T07:43:12.874Z,72.37
2023-05-19T07:46:15.285Z,70.45
2023-05-19T07:49:17.843Z,68.37
2023-05-19T07:52:20.119Z,69.31
2023-05-19T07:55:23.986Z,71.40
2023-05-19T07:58:26.491Z,68.65
2023-05-19T08:01:30.551Z,69.16
2023-05-19T08:04:33.591Z,69.94
2023-05-19T08:07:36.173Z,73.66
2023-05-19T08:10:38.691Z,76.79
2023-05-19T08:13:41.063Z,73.95
2023-05-19T08:16:45.023Z,73.83
2023-05-19T08:19:47.229Z,68.43
2023-05-19T08:22:49.967Z,63.04
2023-05-19T08:25:52.401Z,60.67
2023-05-19T08:28:54.902Z,61.61
2023-05-19T08:31:58.462Z,67.17
2023-05-19T08:35:01.069Z,68.37
2023-05-19T08:38:03.317Z,69.45
2023-05-19T08:41:06.217Z,67.89
2023-05-19T08:44:08.512Z,62.92
2023-05-19T08:47:14.500Z,70.28
2023-05-19T08:50:21.317Z,65.42
2023-05-19T08:53:33.691Z,67.04
2023-05-19T08:56:37.963Z,63.83
2023-05-19T08:59:41.512Z,64.53
2023-05-19T09:02:55.072Z,65.23
2023-05-19T09:06:08.637Z,59.04
2023-05-19T09:09:11.557Z,60.07
2023-05-19T09:12:14.404Z,59.98
2023-05-19T09:15:20.982Z,58.73
2023-05-19T09:18:26.065Z,53.40
2023-05-19T09:21:31.073Z,55.44
2023-05-19T09:24:34.135Z,55.00
2023-05-19T09:27:36.314Z,53.78
2023-05-19T09:30:39.521Z,60.39
2023-05-19T09:33:45.570Z,63.68
2023-05-19T09:36:53.513Z,62.65
2023-05-19T09:39:56.543Z,67.24
2023-05-19T09:42:58.975Z,63.86
2023-05-19T09:46:03.931Z,64.05
2023-05-19T09:49:09.841Z,58.18
2023-05-19T09:52:16.297Z,52.08
2023-05-19T09:55:23.035Z,56.12
2023-05-19T09:58:26.458Z,61.78
2023-05-19T10:01:32.907Z,55.55
2023-05-19T10:04:36.278Z,41.72
2023-05-19T10:07:40.541Z,34.72
2023-05-19T10:10:43.384Z,25.16
2023-05-19T10:13:47.161Z,25.10
2023-05-19T10:16:52.588Z,23.49
2023-05-19T10:19:55.102Z,21.70
2023-05-19T10:22:57.580Z,22.83
2023-05-19T10:26:01.492Z,22.34
2023-05-19T10:29:05.243Z,20.99
2023-05-19T10:32:15.306Z,20.84
2023-05-19T10:35:48.999Z,23.32
2023-05-19T10:39:16.665Z,31.25
2023-05-19T10:42:33.524Z,35.35
2023-05-19T10:45:46.029Z,30.48
2023-05-19T10:48:48.528Z,25.22
2023-05-19T10:51:54.879Z,25.01
2023-05-19T10:54:58.241Z,26.01
2023-05-19T10:58:00.533Z,24.20
2023-05-19T11:01:06.890Z,24.38
2023-05-19T11:04:15.592Z,23.35
2023-05-19T11:07:19.825Z,29.79
2023-05-19T11:10:25.242Z,37.89
2023-05-19T11:13:28.599Z,39.35
2023-05-19T11:16:34.601Z,34.40
2023-05-19T11:19:37.197Z,33.85
2023-05-19T11:22:39.971Z,36.70
2023-05-19T11:25:51.284Z,37.32
2023-05-19T11:28:54.655Z,42.24
2023-05-19T11:31:57.497Z,41.07
2023-05-19T11:35:00.755Z,38.31
2023-05-19T11:38:03.612Z,42.40
2023-05-19T11:41:05.990Z,44.47
2023-05-19T11:44:12.039Z,42.51
2023-05-19T11:47:15.150Z,43.21
2023-05-19T11:50:18.291Z,45.84
2023-05-19T11:53:21.089Z,43.65
2023-05-19T11:56:23.709Z,45.02
2023-05-19T11:59:34.925Z,46.25
2023-05-19T12:02:38.575Z,44.96
2023-05-19T12:05:46.839Z,48.78
2023-05-19T12:08:52.133Z,47.34
2023-05-19T12:11:55.100Z,47.24
2023-05-19T12:14:57.333Z,45.42
2023-05-19T12:18:03.629Z,46.14
2023-05-19T12:21:06.493Z,46.68
2023-05-19T12:24:09.704Z,47.33
2023-05-19T12:27:19.960Z,47.98
2023-05-19T12:30:30.728Z,45.14
2023-05-19T12:33:35.653Z,45.23
2023-05-19T12:36:38.733Z,50.32
2023-05-19T12:39:42.789Z,47.72
2023-05-19T12:42:45.572Z,48.38
2023-05-19T12:45:48.212Z,45.51
2023-05-19T12:48:51.694Z,49.07
2023-05-19T12:51:54.424Z,46.57
2023-05-19T12:55:06.151Z,49.13
2023-05-19T12:58:08.901Z,47.27
2023-05-19T13:01:18.678Z,48.77
2023-05-19T13:04:21.251Z,47.21
2023-05-19T13:07:24.131Z,47.58
2023-05-19T13:10:27.625Z,46.13
2023-05-19T13:13:30.086Z,47.33
2023-05-19T13:16:32.261Z,47.08
2023-05-19T13:19:34.788Z,48.93
2023-05-19T13:22:37.003Z,48.35
2023-05-19T13:25:40.420Z,48.13
2023-05-19T13:28:42.597Z,50.82
2023-05-19T13:31:45.106Z,53.63
2023-05-19T13:34:47.689Z,54.41
2023-05-19T13:37:50.241Z,49.67
2023-05-19T13:40:52.443Z,48.91
2023-05-19T13:43:58.316Z,49.73
2023-05-19T13:47:00.453Z,46.31
2023-05-19T13:50:04.610Z,45.06
2023-05-19T13:53:07.094Z,46.66
2023-05-19T13:56:09.773Z,51.29
2023-05-19T13:59:12.092Z,48.19
2023-05-19T14:02:14.667Z,50.57
2023-05-19T14:05:17.222Z,51.00
2023-05-19T14:08:19.512Z,54.34
2023-05-19T14:11:22.569Z,55.99
2023-05-19T14:14:25.156Z,56.99
2023-05-19T14:17:28.411Z,57.00
2023-05-19T14:20:31.776Z,51.28
2023-05-19T14:23:34.552Z,50.67
2023-05-19T14:26:36.818Z,51.64
2023-05-19T14:29:39.340Z,49.66
2023-05-19T14:32:41.587Z,49.33
2023-05-19T14:35:44.060Z,50.06
2023-05-19T14:38:46.294Z,53.19
2023-05-19T14:41:50.990Z,48.17
2023-05-19T14:44:53.314Z,47.94
2023-05-19T14:47:55.912Z,48.42
2023-05-19T14:50:58.141Z,52.78
2023-05-19T14:54:02.241Z,54.01
2023-05-19T14:57:04.631Z,51.38
2023-05-19T15:00:10.117Z,52.60
2023-05-19T15:03:12.337Z,55.38
2023-05-19T15:06:14.965Z,50.34
2023-05-19T15:09:17.205Z,51.79
